sensor_id;sensor_type;location;lat;lon;timestamp;pressure;altitude;pressure_sealevel;temperature;humidity
41596;BME280;27283;52.504;13.358;2023-04-01T00:01:05;99282.19;;;9.16;100.00
41596;BME280;27283;52.504;13.358;2023-04-01T00:03:40;99280.78;;;9.20;100.00
41596;BME280;27283;52.504;13.358;2023-04-01T00:06:21;99286.16;;;9.20;100.00
41596;BME280;27283;52.504;13.358;2023-04-01T00:08:54;99287.81;;;9.21;100.00
41596;BME280;27283;52.504;13.358;2023-04-01T00:11:26;99286.00;;;9.28;100.00
41596;BME280;27283;52.504;13.358;2023-04-01T00:13:59;99284.75;;;9.24;100.00
41596;BME280;27283;52.504;13.358;2023-04-01T00:16:49;99282.69;;;9.26;100.00
41596;BME280;27283;52.504;13.358;2023-04-01T00:19:24;99283.69;;;9.25;100.00
41596;BME280;27283;52.504;13.358;2023-04-01T00:21:56;99284.59;;;9.32;100.00
41596;BME280;27283;52.504;13.358;2023-04-01T00:24:28;99286.78;;;9.22;100.00
41596;BME280;27283;52.504;13.358;2023-04-01T00:27:01;99287.16;;;9.19;100.00
41596;BME280;27283;52.504;13.358;2023-04-01T00:29:33;99288.25;;;9.25;100.00
41596;BME280;27283;52.504;13.358;2023-04-01T00:32:05;99289.72;;;9.27;100.00
41596;BME280;27283;52.504;13.358;2023-04-01T00:34:41;99287.09;;;9.34;100.00
41596;BME280;27283;52.504;13.358;2023-04-01T00:37:13;99283.78;;;9.32;100.00
41596;BME280;27283;52.504;13.358;2023-04-01T00:39:45;99283.59;;;9.33;100.00
41596;BME280;27283;52.504;13.358;2023-04-01T00:42:18;99284.16;;;9.29;100.00
41596;BME280;27283;52.504;13.358;2023-04-01T00:44:52;99294.03;;;9.28;100.00
41596;BME280;27283;52.504;13.358;2023-04-01T00:47:25;99293.66;;;9.31;100.00
41596;BME280;27283;52.504;13.358;2023-04-01T00:50:00;99291.63;;;9.33;100.00
41596;BME280;27283;52.504;13.358;2023-04-01T00:52:33;99284.00;;;9.37;100.00
41596;BME280;27283;52.504;13.358;2023-04-01T00:55:06;99287.72;;;9.36;100.00
41596;BME280;27283;52.504;13.358;2023-04-01T00:57:42;99291.63;;;9.33;100.00
41596;BME280;27283;52.504;13.358;2023-04-01T01:00:20;99289.06;;;9.25;100.00
41596;BME280;27283;52.504;13.358;2023-04-01T01:02:52;99289.97;;;9.32;100.00
41596;BME280;27283;52.504;13.358;2023-04-01T01:05:34;99287.31;;;9.39;100.00
41596;BME280;27283;52.504;13.358;2023-04-01T01:08:19;99290.84;;;9.39;100.00
41596;BME280;27283;52.504;13.358;2023-04-01T01:10:55;99288.94;;;9.33;100.00
41596;BME280;27283;52.504;13.358;2023-04-01T01:13:30;99281.34;;;9.37;100.00
41596;BME280;27283;52.504;13.358;2023-04-01T01:16:07;99290.28;;;9.44;100.00
41596;BME280;27283;52.504;13.358;2023-04-01T01:19:10;99294.16;;;9.42;100.00
41596;BME280;27283;52.504;13.358;2023-04-01T01:22:31;99287.16;;;9.40;100.00
41596;BME280;27283;52.504;13.358;2023-04-01T01:25:22;99291.09;;;9.45;100.00
41596;BME280;27283;52.504;13.358;2023-04-01T01:28:35;99296.47;;;9.45;100.00
41596;BME280;27283;52.504;13.358;2023-04-01T01:31:15;99288.75;;;9.13;100.00
41596;BME280;27283;52.504;13.358;2023-04-01T01:34:48;99294.59;;;9.17;100.00
41596;BME280;27283;52.504;13.358;2023-04-01T01:37:46;99294.63;;;9.23;100.00
41596;BME280;27283;52.504;13.358;2023-04-01T01:40:33;99293.81;;;9.23;100.00
41596;BME280;27283;52.504;13.358;2023-04-01T01:43:09;99292.91;;;9.16;100.00
41596;BME280;27283;52.504;13.358;2023-04-01T01:45:45;99293.50;;;9.11;100.00
41596;BME280;27283;52.504;13.358;2023-04-01T01:48:19;99296.28;;;9.25;100.00
41596;BME280;27283;52.504;13.358;2023-04-01T01:50:52;99299.38;;;9.21;100.00
41596;BME280;27283;52.504;13.358;2023-04-01T01:53:27;99298.75;;;9.19;100.00
41596;BME280;27283;52.504;13.358;2023-04-01T01:55:59;99301.47;;;9.26;100.00
41596;BME280;27283;52.504;13.358;2023-04-01T01:58:33;99300.25;;;9.29;100.00
41596;BME280;27283;52.504;13.358;2023-04-01T02:01:11;99303.94;;;9.28;100.00
41596;BME280;27283;52.504;13.358;2023-04-01T02:04:20;99303.06;;;9.20;100.00
41596;BME280;27283;52.504;13.358;2023-04-01T02:07:27;99303.25;;;8.97;100.00
41596;BME280;27283;52.504;13.358;2023-04-01T02:10:06;99307.78;;;9.18;100.00
41596;BME280;27283;52.504;13.358;2023-04-01T02:13:13;99308.69;;;9.26;100.00
41596;BME280;27283;52.504;13.358;2023-04-01T02:15:47;99311.63;;;9.31;100.00
41596;BME280;27283;52.504;13.358;2023-04-01T02:18:23;99308.34;;;9.35;100.00
41596;BME280;27283;52.504;13.358;2023-04-01T02:20:57;99310.44;;;9.40;100.00
41596;BME280;27283;52.504;13.358;2023-04-01T02:23:32;99311.72;;;9.44;100.00
41596;BME280;27283;52.504;13.358;2023-04-01T02:26:09;99311.97;;;9.49;100.00
41596;BME280;27283;52.504;13.358;2023-04-01T02:28:45;99305.16;;;9.47;100.00
41596;BME280;27283;52.504;13.358;2023-04-01T02:31:18;99314.66;;;9.49;100.00
41596;BME280;27283;52.504;13.358;2023-04-01T02:33:51;99314.47;;;9.51;100.00
41596;BME280;27283;52.504;13.358;2023-04-01T02:36:24;99317.34;;;9.49;100.00
41596;BME280;27283;52.504;13.358;2023-04-01T02:38:57;99317.91;;;9.45;100.00
41596;BME280;27283;52.504;13.358;2023-04-01T02:41:38;99324.56;;;9.49;100.00
41596;BME280;27283;52.504;13.358;2023-04-01T02:44:34;99320.66;;;9.51;100.00
41596;BME280;27283;52.504;13.358;2023-04-01T02:47:26;99323.97;;;9.53;100.00
41596;BME280;27283;52.504;13.358;2023-04-01T02:50:09;99322.91;;;9.48;100.00
41596;BME280;27283;52.504;13.358;2023-04-01T02:53:00;99329.50;;;9.45;100.00
41596;BME280;27283;52.504;13.358;2023-04-01T02:55:33;99329.44;;;9.38;100.00
41596;BME280;27283;52.504;13.358;2023-04-01T02:58:12;99325.84;;;9.31;100.00
41596;BME280;27283;52.504;13.358;2023-04-01T03:00:45;99328.09;;;9.06;100.00
41596;BME280;27283;52.504;13.358;2023-04-01T03:03:18;99328.88;;;9.21;100.00
41596;BME280;27283;52.504;13.358;2023-04-01T03:05:50;99329.09;;;9.27;100.00
41596;BME280;27283;52.504;13.358;2023-04-01T03:08:24;99330.59;;;9.29;100.00
41596;BME280;27283;52.504;13.358;2023-04-01T03:10:56;99328.91;;;9.28;100.00
41596;BME280;27283;52.504;13.358;2023-04-01T03:13:30;99331.41;;;9.30;100.00
41596;BME280;27283;52.504;13.358;2023-04-01T03:16:03;99337.22;;;9.33;100.00
41596;BME280;27283;52.504;13.358;2023-04-01T03:18:40;99328.59;;;9.38;100.00
41596;BME280;27283;52.504;13.358;2023-04-01T03:21:21;99332.88;;;9.32;100.00
41596;BME280;27283;52.504;13.358;2023-04-01T03:23:58;99330.63;;;9.36;100.00
41596;BME280;27283;52.504;13.358;2023-04-01T03:26:32;99336.84;;;9.36;100.00
41596;BME280;27283;52.504;13.358;2023-04-01T03:29:07;99335.38;;;9.34;100.00
41596;BME280;27283;52.504;13.358;2023-04-01T03:31:38;99336.38;;;9.33;100.00
41596;BME280;27283;52.504;13.358;2023-04-01T03:34:10;99343.25;;;9.14;100.00
41596;BME280;27283;52.504;13.358;2023-04-01T03:36:42;99339.69;;;9.13;100.00
41596;BME280;27283;52.504;13.358;2023-04-01T03:39:16;99347.44;;;9.23;100.00
41596;BME280;27283;52.504;13.358;2023-04-01T03:41:48;99344.19;;;9.28;100.00
41596;BME280;27283;52.504;13.358;2023-04-01T03:44:23;99350.75;;;9.25;100.00
41596;BME280;27283;52.504;13.358;2023-04-01T03:46:55;99352.84;;;9.30;100.00
41596;BME280;27283;52.504;13.358;2023-04-01T03:49:28;99358.88;;;9.32;100.00
41596;BME280;27283;52.504;13.358;2023-04-01T03:52:00;99354.78;;;9.36;100.00
41596;BME280;27283;52.504;13.358;2023-04-01T03:54:34;99358.31;;;9.36;100.00
41596;BME280;27283;52.504;13.358;2023-04-01T03:57:06;99352.16;;;9.43;100.00
41596;BME280;27283;52.504;13.358;2023-04-01T03:59:41;99363.13;;;9.48;100.00
41596;BME280;27283;52.504;13.358;2023-04-01T04:02:13;99360.91;;;9.51;100.00
41596;BME280;27283;52.504;13.358;2023-04-01T04:04:45;99358.44;;;9.50;100.00
41596;BME280;27283;52.504;13.358;2023-04-01T04:07:17;99364.22;;;9.53;100.00
41596;BME280;27283;52.504;13.358;2023-04-01T04:09:49;99372.91;;;9.55;100.00
41596;BME280;27283;52.504;13.358;2023-04-01T04:12:21;99368.91;;;9.45;100.00
41596;BME280;27283;52.504;13.358;2023-04-01T04:14:56;99373.63;;;9.43;100.00
41596;BME280;27283;52.504;13.358;2023-04-01T04:17:28;99373.06;;;9.47;100.00
41596;BME280;27283;52.504;13.358;2023-04-01T04:20:00;99380.28;;;9.47;100.00
41596;BME280;27283;52.504;13.358;2023-04-01T04:22:32;99371.38;;;9.46;100.00
41596;BME280;27283;52.504;13.358;2023-04-01T04:25:05;99379.44;;;9.46;100.00
41596;BME280;27283;52.504;13.358;2023-04-01T04:27:37;99380.19;;;9.40;100.00
41596;BME280;27283;52.504;13.358;2023-04-01T04:30:12;99384.09;;;9.37;100.00
41596;BME280;27283;52.504;13.358;2023-04-01T04:32:44;99386.84;;;9.44;100.00
41596;BME280;27283;52.504;13.358;2023-04-01T04:35:17;99382.06;;;9.39;100.00
41596;BME280;27283;52.504;13.358;2023-04-01T04:37:48;99392.59;;;9.41;100.00
41596;BME280;27283;52.504;13.358;2023-04-01T04:40:21;99388.91;;;9.42;100.00
41596;BME280;27283;52.504;13.358;2023-04-01T04:42:54;99395.88;;;9.36;100.00
41596;BME280;27283;52.504;13.358;2023-04-01T04:45:30;99395.66;;;9.38;100.00
41596;BME280;27283;52.504;13.358;2023-04-01T04:48:04;99399.13;;;9.32;100.00
41596;BME280;27283;52.504;13.358;2023-04-01T04:50:40;99397.88;;;9.34;100.00
41596;BME280;27283;52.504;13.358;2023-04-01T04:53:16;99401.84;;;9.38;100.00
41596;BME280;27283;52.504;13.358;2023-04-01T04:55:50;99400.38;;;9.36;100.00
41596;BME280;27283;52.504;13.358;2023-04-01T04:58:27;99393.19;;;9.36;100.00
41596;BME280;27283;52.504;13.358;2023-04-01T05:01:09;99401.84;;;9.38;100.00
41596;BME280;27283;52.504;13.358;2023-04-01T05:03:44;99403.78;;;9.45;100.00
41596;BME280;27283;52.504;13.358;2023-04-01T05:06:18;99397.59;;;9.44;100.00
41596;BME280;27283;52.504;13.358;2023-04-01T05:08:53;99404.81;;;9.44;100.00
41596;BME280;27283;52.504;13.358;2023-04-01T05:11:26;99405.63;;;9.44;100.00
41596;BME280;27283;52.504;13.358;2023-04-01T05:13:59;99402.19;;;9.50;100.00
41596;BME280;27283;52.504;13.358;2023-04-01T05:16:33;99411.72;;;9.53;100.00
41596;BME280;27283;52.504;13.358;2023-04-01T05:19:06;99411.25;;;9.49;100.00
41596;BME280;27283;52.504;13.358;2023-04-01T05:21:49;99412.91;;;9.50;100.00
41596;BME280;27283;52.504;13.358;2023-04-01T05:24:21;99411.50;;;9.54;100.00
41596;BME280;27283;52.504;13.358;2023-04-01T05:26:55;99425.91;;;9.47;100.00
41596;BME280;27283;52.504;13.358;2023-04-01T05:29:28;99412.53;;;9.53;100.00
41596;BME280;27283;52.504;13.358;2023-04-01T05:32:03;99419.09;;;9.51;100.00
41596;BME280;27283;52.504;13.358;2023-04-01T05:34:34;99421.59;;;9.52;100.00
41596;BME280;27283;52.504;13.358;2023-04-01T05:37:06;99421.22;;;9.55;100.00
41596;BME280;27283;52.504;13.358;2023-04-01T05:39:39;99423.69;;;9.57;100.00
41596;BME280;27283;52.504;13.358;2023-04-01T05:42:11;99419.63;;;9.61;100.00
41596;BME280;27283;52.504;13.358;2023-04-01T05:44:44;99423.69;;;9.57;100.00
41596;BME280;27283;52.504;13.358;2023-04-01T05:47:19;99424.78;;;9.63;100.00
41596;BME280;27283;52.504;13.358;2023-04-01T05:49:51;99429.16;;;9.64;100.00
41596;BME280;27283;52.504;13.358;2023-04-01T05:52:24;99431.44;;;9.67;100.00
41596;BME280;27283;52.504;13.358;2023-04-01T05:54:56;99430.66;;;9.73;100.00
41596;BME280;27283;52.504;13.358;2023-04-01T05:57:29;99434.31;;;9.65;100.00
41596;BME280;27283;52.504;13.358;2023-04-01T06:00:02;99431.44;;;9.67;100.00
41596;BME280;27283;52.504;13.358;2023-04-01T06:02:37;99445.06;;;9.65;100.00
41596;BME280;27283;52.504;13.358;2023-04-01T06:05:14;99440.78;;;9.71;100.00
41596;BME280;27283;52.504;13.358;2023-04-01T06:07:50;99447.59;;;9.73;100.00
41596;BME280;27283;52.504;13.358;2023-04-01T06:10:48;99447.78;;;9.72;100.00
41596;BME280;27283;52.504;13.358;2023-04-01T06:13:31;99447.03;;;9.78;100.00
41596;BME280;27283;52.504;13.358;2023-04-01T06:16:12;99454.44;;;9.76;100.00
41596;BME280;27283;52.504;13.358;2023-04-01T06:22:15;99451.81;;;9.83;100.00
41596;BME280;27283;52.504;13.358;2023-04-01T06:25:09;99462.53;;;9.83;100.00
41596;BME280;27283;52.504;13.358;2023-04-01T06:28:04;99468.38;;;9.86;100.00
41596;BME280;27283;52.504;13.358;2023-04-01T06:30:43;99462.44;;;9.91;100.00
41596;BME280;27283;52.504;13.358;2023-04-01T06:33:33;99471.78;;;9.95;100.00
41596;BME280;27283;52.504;13.358;2023-04-01T06:36:19;99469.72;;;9.97;100.00
41596;BME280;27283;52.504;13.358;2023-04-01T06:39:21;99470.88;;;9.88;100.00
41596;BME280;27283;52.504;13.358;2023-04-01T06:42:20;99473.09;;;9.84;100.00
41596;BME280;27283;52.504;13.358;2023-04-01T06:45:06;99473.56;;;9.88;100.00
41596;BME280;27283;52.504;13.358;2023-04-01T06:47:50;99479.34;;;9.91;100.00
41596;BME280;27283;52.504;13.358;2023-04-01T06:50:28;99481.84;;;9.93;100.00
41596;BME280;27283;52.504;13.358;2023-04-01T06:53:06;99481.28;;;9.98;100.00
41596;BME280;27283;52.504;13.358;2023-04-01T06:55:46;99485.81;;;9.97;100.00
41596;BME280;27283;52.504;13.358;2023-04-01T06:58:21;99480.84;;;9.94;100.00
41596;BME280;27283;52.504;13.358;2023-04-01T07:00:56;99485.44;;;10.00;100.00
41596;BME280;27283;52.504;13.358;2023-04-01T07:03:33;99491.44;;;10.02;100.00
41596;BME280;27283;52.504;13.358;2023-04-01T07:06:09;99488.56;;;10.04;100.00
41596;BME280;27283;52.504;13.358;2023-04-01T07:08:44;99491.03;;;10.05;100.00
41596;BME280;27283;52.504;13.358;2023-04-01T07:11:24;99487.22;;;10.15;100.00
41596;BME280;27283;52.504;13.358;2023-04-01T07:14:01;99489.75;;;10.23;100.00
41596;BME280;27283;52.504;13.358;2023-04-01T07:16:38;99496.13;;;10.22;100.00
41596;BME280;27283;52.504;13.358;2023-04-01T07:19:16;99498.25;;;10.26;100.00
41596;BME280;27283;52.504;13.358;2023-04-01T07:21:55;99492.97;;;10.33;100.00
41596;BME280;27283;52.504;13.358;2023-04-01T07:24:32;99495.00;;;10.31;100.00
41596;BME280;27283;52.504;13.358;2023-04-01T07:27:10;99491.84;;;10.27;100.00
41596;BME280;27283;52.504;13.358;2023-04-01T07:29:43;99494.06;;;10.39;100.00
41596;BME280;27283;52.504;13.358;2023-04-01T07:32:21;99509.44;;;10.52;100.00
41596;BME280;27283;52.504;13.358;2023-04-01T07:35:27;99500.97;;;10.55;100.00
41596;BME280;27283;52.504;13.358;2023-04-01T07:38:16;99506.59;;;10.60;100.00
41596;BME280;27283;52.504;13.358;2023-04-01T07:41:02;99506.13;;;10.50;100.00
41596;BME280;27283;52.504;13.358;2023-04-01T07:43:53;99503.66;;;10.55;100.00
41596;BME280;27283;52.504;13.358;2023-04-01T07:46:44;99508.94;;;10.70;100.00
41596;BME280;27283;52.504;13.358;2023-04-01T07:49:24;99516.47;;;10.81;100.00
41596;BME280;27283;52.504;13.358;2023-04-01T07:52:04;99515.69;;;10.94;100.00
41596;BME280;27283;52.504;13.358;2023-04-01T07:54:41;99515.78;;;11.14;100.00
41596;BME280;27283;52.504;13.358;2023-04-01T07:57:19;99514.75;;;11.15;100.00
41596;BME280;27283;52.504;13.358;2023-04-01T07:59:59;99521.06;;;11.42;100.00
41596;BME280;27283;52.504;13.358;2023-04-01T08:02:44;99528.53;;;11.47;100.00
41596;BME280;27283;52.504;13.358;2023-04-01T08:05:24;99531.69;;;11.57;100.00
41596;BME280;27283;52.504;13.358;2023-04-01T08:08:06;99535.81;;;11.46;100.00
41596;BME280;27283;52.504;13.358;2023-04-01T08:10:46;99533.31;;;11.51;100.00
41596;BME280;27283;52.504;13.358;2023-04-01T08:13:27;99530.84;;;11.50;100.00
41596;BME280;27283;52.504;13.358;2023-04-01T08:16:13;99532.31;;;11.59;99.73
41596;BME280;27283;52.504;13.358;2023-04-01T08:18:56;99531.03;;;11.48;99.08
41596;BME280;27283;52.504;13.358;2023-04-01T08:21:34;99536.41;;;11.42;99.42
41596;BME280;27283;52.504;13.358;2023-04-01T08:24:14;99540.56;;;11.51;99.58
41596;BME280;27283;52.504;13.358;2023-04-01T08:26:53;99537.97;;;11.23;98.75
41596;BME280;27283;52.504;13.358;2023-04-01T08:29:34;99545.44;;;11.27;99.84
41596;BME280;27283;52.504;13.358;2023-04-01T08:32:17;99548.50;;;11.17;99.86
41596;BME280;27283;52.504;13.358;2023-04-01T08:34:57;99549.84;;;11.00;100.00
41596;BME280;27283;52.504;13.358;2023-04-01T08:37:32;99546.56;;;11.05;100.00
41596;BME280;27283;52.504;13.358;2023-04-01T08:40:22;99565.47;;;11.18;100.00
41596;BME280;27283;52.504;13.358;2023-04-01T08:43:09;99563.22;;;10.87;100.00
41596;BME280;27283;52.504;13.358;2023-04-01T08:45:51;99562.81;;;10.90;96.82
41596;BME280;27283;52.504;13.358;2023-04-01T08:48:46;99559.81;;;10.71;98.24
41596;BME280;27283;52.504;13.358;2023-04-01T08:51:48;99565.28;;;10.56;99.15
41596;BME280;27283;52.504;13.358;2023-04-01T08:54:46;99573.41;;;10.63;99.92
41596;BME280;27283;52.504;13.358;2023-04-01T08:57:31;99571.31;;;10.37;100.00
41596;BME280;27283;52.504;13.358;2023-04-01T09:00:15;99569.34;;;10.24;100.00
41596;BME280;27283;52.504;13.358;2023-04-01T09:03:21;99578.97;;;10.18;100.00
41596;BME280;27283;52.504;13.358;2023-04-01T09:09:17;99574.28;;;10.05;100.00
41596;BME280;27283;52.504;13.358;2023-04-01T09:12:08;99581.00;;;9.94;100.00
41596;BME280;27283;52.504;13.358;2023-04-01T09:15:16;99586.53;;;9.71;100.00
41596;BME280;27283;52.504;13.358;2023-04-01T09:18:22;99589.81;;;9.88;100.00
41596;BME280;27283;52.504;13.358;2023-04-01T09:21:19;99596.06;;;9.89;99.50
41596;BME280;27283;52.504;13.358;2023-04-01T09:24:32;99603.81;;;9.84;99.35
41596;BME280;27283;52.504;13.358;2023-04-01T09:27:15;99602.72;;;9.78;98.88
41596;BME280;27283;52.504;13.358;2023-04-01T09:33:09;99616.25;;;9.70;100.00
41596;BME280;27283;52.504;13.358;2023-04-01T09:35:54;99618.00;;;9.78;100.00
41596;BME280;27283;52.504;13.358;2023-04-01T09:38:38;99621.31;;;9.80;100.00
41596;BME280;27283;52.504;13.358;2023-04-01T09:41:26;99628.50;;;9.72;100.00
41596;BME280;27283;52.504;13.358;2023-04-01T09:44:04;99624.13;;;9.71;100.00
41596;BME280;27283;52.504;13.358;2023-04-01T09:46:58;99631.00;;;9.59;100.00
41596;BME280;27283;52.504;13.358;2023-04-01T09:49:52;99631.81;;;9.45;100.00
41596;BME280;27283;52.504;13.358;2023-04-01T09:52:36;99635.44;;;9.37;100.00
41596;BME280;27283;52.504;13.358;2023-04-01T09:55:44;99640.00;;;9.36;100.00
41596;BME280;27283;52.504;13.358;2023-04-01T09:58:51;99642.75;;;9.28;100.00
41596;BME280;27283;52.504;13.358;2023-04-01T10:04:55;99633.22;;;9.11;100.00
41596;BME280;27283;52.504;13.358;2023-04-01T10:11:03;99653.59;;;9.35;100.00
41596;BME280;27283;52.504;13.358;2023-04-01T10:20:07;99659.31;;;9.47;100.00
41596;BME280;27283;52.504;13.358;2023-04-01T10:33:27;99663.38;;;9.28;100.00
41596;BME280;27283;52.504;13.358;2023-04-01T10:42:09;99677.84;;;8.89;100.00
41596;BME280;27283;52.504;13.358;2023-04-01T10:47:58;99676.84;;;8.90;100.00
41596;BME280;27283;52.504;13.358;2023-04-01T10:53:43;99683.81;;;8.76;100.00
41596;BME280;27283;52.504;13.358;2023-04-01T10:59:28;99676.66;;;8.68;100.00
41596;BME280;27283;52.504;13.358;2023-04-01T11:05:31;99682.69;;;8.70;100.00
41596;BME280;27283;52.504;13.358;2023-04-01T11:11:19;99709.50;;;8.70;100.00
41596;BME280;27283;52.504;13.358;2023-04-01T11:14:18;99699.50;;;8.64;100.00
41596;BME280;27283;52.504;13.358;2023-04-01T11:17:20;99704.84;;;8.64;100.00
41596;BME280;27283;52.504;13.358;2023-04-01T11:20:13;99705.44;;;8.74;100.00
41596;BME280;27283;52.504;13.358;2023-04-01T11:23:01;99704.91;;;8.56;100.00
41596;BME280;27283;52.504;13.358;2023-04-01T11:25:55;99707.63;;;8.71;100.00
41596;BME280;27283;52.504;13.358;2023-04-01T11:29:00;99703.22;;;8.78;100.00
41596;BME280;27283;52.504;13.358;2023-04-01T11:32:02;99714.38;;;8.90;100.00
41596;BME280;27283;52.504;13.358;2023-04-01T11:34:52;99718.28;;;9.02;100.00
41596;BME280;27283;52.504;13.358;2023-04-01T11:37:41;99719.81;;;9.19;100.00
41596;BME280;27283;52.504;13.358;2023-04-01T11:40:32;99727.16;;;9.02;100.00
41596;BME280;27283;52.504;13.358;2023-04-01T11:43:11;99726.44;;;8.85;100.00
41596;BME280;27283;52.504;13.358;2023-04-01T11:46:10;99733.13;;;8.90;100.00
41596;BME280;27283;52.504;13.358;2023-04-01T11:48:55;99735.22;;;9.17;100.00
41596;BME280;27283;52.504;13.358;2023-04-01T11:51:51;99743.50;;;9.31;100.00
41596;BME280;27283;52.504;13.358;2023-04-01T11:54:40;99743.75;;;9.21;100.00
41596;BME280;27283;52.504;13.358;2023-04-01T11:57:38;99736.97;;;9.10;100.00
41596;BME280;27283;52.504;13.358;2023-04-01T12:00:38;99743.22;;;9.26;100.00
41596;BME280;27283;52.504;13.358;2023-04-01T12:03:36;99752.91;;;9.27;100.00
41596;BME280;27283;52.504;13.358;2023-04-01T12:06:16;99766.41;;;9.18;100.00
41596;BME280;27283;52.504;13.358;2023-04-01T12:08:57;99762.72;;;9.19;99.89
41596;BME280;27283;52.504;13.358;2023-04-01T12:11:38;99765.50;;;9.26;99.93
41596;BME280;27283;52.504;13.358;2023-04-01T12:14:20;99778.44;;;8.99;98.94
41596;BME280;27283;52.504;13.358;2023-04-01T12:17:07;99769.63;;;8.91;99.36
41596;BME280;27283;52.504;13.358;2023-04-01T12:19:53;99778.34;;;8.93;100.00
41596;BME280;27283;52.504;13.358;2023-04-01T12:22:42;99781.09;;;9.08;99.46
41596;BME280;27283;52.504;13.358;2023-04-01T12:25:27;99782.28;;;8.82;98.50
41596;BME280;27283;52.504;13.358;2023-04-01T12:28:13;99796.50;;;8.82;99.47
41596;BME280;27283;52.504;13.358;2023-04-01T12:30:57;99796.88;;;8.79;98.98
41596;BME280;27283;52.504;13.358;2023-04-01T12:33:53;99782.78;;;8.54;99.25
41596;BME280;27283;52.504;13.358;2023-04-01T12:36:50;99786.97;;;8.57;99.11
41596;BME280;27283;52.504;13.358;2023-04-01T12:42:14;99794.38;;;8.78;99.65
41596;BME280;27283;52.504;13.358;2023-04-01T12:45:02;99801.50;;;8.62;99.03
41596;BME280;27283;52.504;13.358;2023-04-01T12:47:59;99801.69;;;8.61;98.79
41596;BME280;27283;52.504;13.358;2023-04-01T12:50:51;99798.84;;;8.85;99.05
41596;BME280;27283;52.504;13.358;2023-04-01T12:53:54;99807.13;;;8.99;98.61
41596;BME280;27283;52.504;13.358;2023-04-01T12:56:42;99817.94;;;8.82;98.64
41596;BME280;27283;52.504;13.358;2023-04-01T12:59:29;99819.41;;;8.62;98.97
41596;BME280;27283;52.504;13.358;2023-04-01T13:02:16;99827.94;;;8.65;99.45
41596;BME280;27283;52.504;13.358;2023-04-01T13:05:10;99820.91;;;8.25;100.00
41596;BME280;27283;52.504;13.358;2023-04-01T13:08:03;99826.44;;;8.23;100.00
41596;BME280;27283;52.504;13.358;2023-04-01T13:10:58;99836.38;;;8.06;100.00
41596;BME280;27283;52.504;13.358;2023-04-01T13:16:58;99834.00;;;8.11;100.00
41596;BME280;27283;52.504;13.358;2023-04-01T13:19:38;99840.19;;;8.12;100.00
41596;BME280;27283;52.504;13.358;2023-04-01T13:22:45;99846.38;;;8.12;100.00
41596;BME280;27283;52.504;13.358;2023-04-01T13:25:25;99846.22;;;8.06;100.00
41596;BME280;27283;52.504;13.358;2023-04-01T13:28:10;99852.97;;;7.77;100.00
41596;BME280;27283;52.504;13.358;2023-04-01T13:30:52;99860.44;;;8.14;100.00
41596;BME280;27283;52.504;13.358;2023-04-01T13:33:32;99867.44;;;8.24;100.00
41596;BME280;27283;52.504;13.358;2023-04-01T13:36:14;99859.75;;;8.21;99.87
41596;BME280;27283;52.504;13.358;2023-04-01T13:39:02;99865.97;;;8.13;100.00
41596;BME280;27283;52.504;13.358;2023-04-01T13:41:49;99864.56;;;8.25;99.10
41596;BME280;27283;52.504;13.358;2023-04-01T13:44:32;99878.53;;;8.12;96.95
41596;BME280;27283;52.504;13.358;2023-04-01T13:47:37;99870.72;;;7.78;98.47
41596;BME280;27283;52.504;13.358;2023-04-01T13:50:37;99877.25;;;7.84;97.55
41596;BME280;27283;52.504;13.358;2023-04-01T13:53:34;99887.44;;;7.63;98.81
41596;BME280;27283;52.504;13.358;2023-04-01T13:56:30;99880.56;;;7.77;97.84
41596;BME280;27283;52.504;13.358;2023-04-01T13:59:19;99879.75;;;7.77;97.59
41596;BME280;27283;52.504;13.358;2023-04-01T14:02:11;99891.59;;;7.91;96.67
41596;BME280;27283;52.504;13.358;2023-04-01T14:05:09;99889.09;;;7.89;96.11
41596;BME280;27283;52.504;13.358;2023-04-01T14:08:04;99897.44;;;8.03;97.18
41596;BME280;27283;52.504;13.358;2023-04-01T14:10:46;99901.44;;;8.07;96.56
41596;BME280;27283;52.504;13.358;2023-04-01T14:13:28;99898.81;;;7.82;95.58
41596;BME280;27283;52.504;13.358;2023-04-01T14:16:26;99910.50;;;7.89;95.01
41596;BME280;27283;52.504;13.358;2023-04-01T14:19:20;99916.56;;;7.75;94.78
41596;BME280;27283;52.504;13.358;2023-04-01T14:22:04;99911.03;;;7.76;93.88
41596;BME280;27283;52.504;13.358;2023-04-01T14:24:51;99918.19;;;7.92;93.77
41596;BME280;27283;52.504;13.358;2023-04-01T14:27:39;99926.38;;;8.07;92.85
41596;BME280;27283;52.504;13.358;2023-04-01T14:30:30;99930.88;;;8.15;92.05
41596;BME280;27283;52.504;13.358;2023-04-01T14:33:30;99931.72;;;8.15;92.99
41596;BME280;27283;52.504;13.358;2023-04-01T14:39:43;99941.44;;;8.08;94.22
41596;BME280;27283;52.504;13.358;2023-04-01T14:42:31;99929.25;;;7.81;97.16
41596;BME280;27283;52.504;13.358;2023-04-01T14:45:44;99943.47;;;7.81;96.91
41596;BME280;27283;52.504;13.358;2023-04-01T14:48:25;99936.47;;;7.80;96.03
41596;BME280;27283;52.504;13.358;2023-04-01T14:51:08;99953.50;;;7.79;95.98
41596;BME280;27283;52.504;13.358;2023-04-01T14:54:12;99951.84;;;7.87;95.75
41596;BME280;27283;52.504;13.358;2023-04-01T14:57:10;99947.81;;;7.74;96.44
41596;BME280;27283;52.504;13.358;2023-04-01T14:59:48;99957.38;;;7.69;95.90
41596;BME280;27283;52.504;13.358;2023-04-01T15:02:45;99970.38;;;7.63;95.05
41596;BME280;27283;52.504;13.358;2023-04-01T15:05:31;99976.72;;;7.54;94.61
41596;BME280;27283;52.504;13.358;2023-04-01T15:08:17;99978.75;;;7.60;92.85
41596;BME280;27283;52.504;13.358;2023-04-01T15:11:06;99974.88;;;7.47;92.35
41596;BME280;27283;52.504;13.358;2023-04-01T15:17:02;99990.63;;;7.58;93.16
41596;BME280;27283;52.504;13.358;2023-04-01T15:19:47;99999.31;;;7.60;91.88